Wootton Bridge, United Kingdom

4:11 PM BST on October 23, 2017 (GMT +0100)
IISLEOFW4 | | Change Station

Elev 45 ft 50.72 °N, 1.27 °W | Updated 9 seconds ago

Overcast
Overcast
59.5 °F
Feels Like 59.5 °F
N
6.0
Wind Variable Wind from WSW
Gusts 6.0 mph

Today
High -- | Low -- °F
--% Chance of Precip.
Yesterday
High -- | Low -- °F
Precip. -- in
Pressure 30.04 in
Visibility 6.2 miles
Clouds Mostly Cloudy 900 ft
Dew Point 59 °F
Humidity 97%
Rainfall 0.11 in
Snow Depth Not available.
7:41 AM 5:56 PM
Waxing Crescent, 14% visible
METAR EGHI 231450Z 22007KT 9999 BKN009 15/14 Q1017
Pressure 30.04 in
Visibility 6.2 miles
Clouds Mostly Cloudy 900 ft
Dew Point 59 °F
Humidity 97%
Rainfall 0.11 in
Snow Depth Not available.
7:41 AM 5:56 PM
Waxing Crescent, 14% visible
METAR EGHI 231450Z 22007KT 9999 BKN009 15/14 Q1017

Get Severe Weather Alerts

Thanks for signing up!

Be on the lookout for a verification email in your inbox.

You'll start receiving the daily forecast at 6 AM.

×

10-Day Weather Forecast

×

Almanac

Astronomy

Oct. 23, 2017 Rise Set
Actual Time
Civil Twilight
Nautical Twilight
Astronomical Twilight
Moon
Length of Visible Light
Length of Day
Tomorrow will be .
, % of the Moon is Illuminated

Today's Extremes

Country Highs Country Lows

Community

WunderPhotos

Category 6

Welcome to Category 6. This is the collective home for Weather Underground's featured writeups by Dr. Jeff Masters (right), Bob Henson (left), Chris Burt, and other regular contributors.

Nearby

Air Quality

  Air Quality AQ Index Pollutant
Not available.

Snow Depth

Station Depth Elevation

Earthquake Activity

City Distance Mag. Time & Date
Minimum magnitude displayed is 2.5.

Coastal Water Temperatures

Place Temperature

Stations

Nearby Weather Stations

Station Location Temp. Windchill Dew Point Humidity Wind Precip. Elev Updated Type